Aviation Digital Data Service (ADDS)

Output produced by METARs form (1752 UTC 25 July 2016)
found at http://aviationweather.gov/adds/metars/
 
KGON 251722Z 2518/2618 18010KT P6SM SCT050 
     TEMPO 2522/2602 4SM TSRA BKN040CB 
     FM260200 23005KT 5SM -SHRA BKN050 BKN250 
     FM260500 VRB03KT P6SM BKN050 BKN250 
     FM260800 VRB03KT 5SM BR SCT250 
     FM261200 32008KT P6SM SCT250 
     FM261700 28010KT P6SM SCT050 SCT250